createdAt,value
2023-03-21T00:03:21.464Z,6.50
2023-03-21T00:08:30.271Z,5.79
2023-03-21T00:13:38.722Z,7.05
2023-03-21T00:18:46.728Z,7.26
2023-03-21T00:23:55.031Z,8.51
2023-03-21T00:29:04.715Z,7.77
2023-03-21T00:39:20.455Z,6.86
2023-03-21T00:44:28.895Z,8.53
2023-03-21T00:49:38.701Z,7.93
2023-03-21T00:54:48.581Z,7.77
2023-03-21T00:59:56.565Z,7.25
2023-03-21T01:05:04.952Z,7.52
2023-03-21T01:10:13.953Z,7.83
2023-03-21T01:15:24.271Z,7.57
2023-03-21T01:20:22.074Z,7.36
2023-03-21T01:25:30.475Z,7.22
2023-03-21T01:30:41.937Z,7.02
2023-03-21T01:35:57.646Z,7.66
2023-03-21T01:40:43.736Z,7.88
2023-03-21T01:45:54.951Z,8.50
2023-03-21T01:50:54.495Z,9.09
2023-03-21T01:56:03.983Z,7.92
2023-03-21T02:01:12.243Z,8.57
2023-03-21T02:06:21.155Z,8.09
2023-03-21T02:11:32.711Z,8.60
2023-03-21T02:16:32.147Z,8.37
2023-03-21T02:21:41.642Z,10.49
2023-03-21T02:27:01.446Z,10.92
2023-03-21T02:32:12.372Z,11.94
2023-03-21T02:37:08.473Z,11.30
2023-03-21T02:42:17.184Z,11.47
2023-03-21T02:47:27.395Z,11.22
2023-03-21T02:52:35.874Z,10.67
2023-03-21T02:57:43.099Z,10.83
2023-03-21T03:02:34.686Z,10.61
2023-03-21T03:07:44.102Z,10.55
2023-03-21T03:12:52.679Z,9.58
2023-03-21T03:18:02.155Z,10.09
2023-03-21T03:23:10.561Z,9.34
2023-03-21T03:28:20.062Z,11.45
2023-03-21T03:33:28.546Z,11.00
2023-03-21T03:38:38.416Z,12.79
2023-03-21T03:43:48.861Z,12.91
2023-03-21T03:48:48.296Z,12.77
2023-03-21T03:53:59.256Z,13.86
2023-03-21T03:58:57.706Z,12.94
2023-03-21T04:04:13.216Z,10.81
2023-03-21T04:09:21.825Z,11.56
2023-03-21T04:14:28.692Z,12.90
2023-03-21T04:19:32.678Z,12.56
2023-03-21T04:24:43.635Z,12.80
2023-03-21T04:29:42.413Z,12.86
2023-03-21T04:34:50.888Z,13.20
2023-03-21T04:39:52.837Z,14.09
2023-03-21T04:45:01.075Z,13.18
2023-03-21T04:50:10.695Z,16.06
2023-03-21T04:55:13.114Z,19.50
2023-03-21T05:00:24.450Z,14.68
2023-03-21T05:05:23.234Z,15.19
2023-03-21T05:10:33.621Z,14.80
2023-03-21T05:15:32.803Z,17.84
2023-03-21T05:20:41.231Z,17.47
2023-03-21T05:25:49.496Z,22.23
2023-03-21T05:30:52.681Z,18.01
2023-03-21T05:36:01.798Z,17.53
2023-03-21T05:41:11.117Z,17.97
2023-03-21T05:46:20.448Z,16.41
2023-03-21T05:51:29.951Z,16.59
2023-03-21T05:56:38.391Z,17.42
2023-03-21T06:01:48.164Z,17.23
2023-03-21T06:07:00.926Z,16.98
2023-03-21T06:11:59.708Z,16.98
2023-03-21T06:17:08.414Z,17.58
2023-03-21T06:22:17.044Z,17.24
2023-03-21T06:27:24.940Z,16.93
2023-03-21T06:32:33.497Z,17.39
2023-03-21T06:37:42.033Z,16.72
2023-03-21T06:42:50.357Z,16.93
2023-03-21T06:47:58.637Z,17.63
2023-03-21T06:53:08.751Z,17.55
2023-03-21T06:58:07.164Z,17.77
2023-03-21T07:03:15.731Z,18.06
2023-03-21T07:08:24.679Z,16.81
2023-03-21T07:13:33.377Z,18.68
2023-03-21T07:18:42.367Z,17.51
2023-03-21T07:23:52.388Z,18.30
2023-03-21T07:28:51.612Z,18.87
2023-03-21T07:34:00.814Z,19.58
2023-03-21T07:39:11.225Z,19.05
2023-03-21T07:44:10.168Z,19.35
2023-03-21T07:49:18.949Z,19.06
2023-03-21T07:54:28.885Z,29.07
2023-03-21T07:59:37.125Z,23.18
2023-03-21T08:04:51.014Z,20.77
2023-03-21T08:09:48.923Z,20.83
2023-03-21T08:14:59.971Z,19.70
2023-03-21T08:20:05.542Z,23.81
2023-03-21T08:25:15.745Z,26.13
2023-03-21T08:30:14.752Z,20.18
2023-03-21T08:35:24.597Z,23.21
2023-03-21T08:40:32.628Z,28.14
2023-03-21T08:45:41.277Z,23.54
2023-03-21T08:50:50.343Z,19.44
2023-03-21T08:56:00.468Z,18.46
2023-03-21T09:00:59.907Z,18.20
2023-03-21T09:06:08.747Z,17.65
2023-03-21T09:11:18.070Z,17.80
2023-03-21T09:16:28.192Z,16.21
2023-03-21T09:21:28.490Z,16.37
2023-03-21T09:26:29.384Z,17.27
2023-03-21T09:31:28.813Z,17.37
2023-03-21T09:36:38.984Z,17.15
2023-03-21T09:41:37.998Z,17.18
2023-03-21T09:46:47.792Z,16.99
2023-03-21T09:51:56.120Z,17.24
2023-03-21T09:57:06.480Z,17.85
2023-03-21T10:02:04.604Z,17.02
2023-03-21T10:07:14.025Z,16.68
2023-03-21T10:12:22.463Z,17.74
2023-03-21T10:17:31.036Z,17.26
2023-03-21T10:22:40.630Z,16.26
2023-03-21T10:27:50.883Z,16.66
2023-03-21T10:32:48.974Z,15.55
2023-03-21T10:37:57.995Z,16.19
2023-03-21T10:43:07.077Z,18.33
2023-03-21T10:48:16.645Z,15.34
2023-03-21T10:53:25.091Z,14.16
2023-03-21T10:58:36.198Z,14.49
2023-03-21T11:03:34.545Z,14.97
2023-03-21T11:08:42.901Z,14.73
2023-03-21T11:13:51.253Z,14.64
2023-03-21T11:19:01.275Z,15.11
2023-03-21T11:23:59.449Z,15.45
2023-03-21T11:29:08.283Z,14.68
2023-03-21T11:34:18.912Z,14.57
2023-03-21T11:39:19.197Z,14.65
2023-03-21T11:44:17.643Z,15.59
2023-03-21T11:49:26.906Z,14.54
2023-03-21T11:54:35.238Z,13.55
2023-03-21T11:59:45.306Z,13.76
2023-03-21T12:04:43.905Z,14.03
2023-03-21T12:09:53.255Z,12.90
2023-03-21T12:15:02.521Z,13.49
2023-03-21T12:20:12.456Z,13.72
2023-03-21T12:25:20.810Z,12.87
2023-03-21T12:30:29.567Z,13.12
2023-03-21T12:35:40.303Z,12.69
2023-03-21T12:40:39.377Z,12.02
2023-03-21T12:45:48.194Z,10.94
2023-03-21T12:50:58.777Z,10.98
2023-03-21T12:55:57.595Z,11.26
2023-03-21T13:01:07.546Z,11.65
2023-03-21T13:06:16.697Z,10.34
2023-03-21T13:11:25.877Z,9.86
2023-03-21T13:16:35.218Z,9.34
2023-03-21T13:21:43.571Z,9.10
2023-03-21T13:26:53.137Z,9.04
2023-03-21T13:32:06.220Z,9.11
2023-03-21T13:37:06.205Z,8.84
2023-03-21T13:42:17.789Z,8.50
2023-03-21T13:47:18.462Z,9.16
2023-03-21T13:52:20.008Z,9.42
2023-03-21T13:57:22.240Z,9.52
2023-03-21T14:02:22.174Z,9.05
2023-03-21T14:07:31.837Z,9.13
2023-03-21T14:12:41.663Z,9.53
2023-03-21T14:17:51.242Z,8.91
2023-03-21T14:23:01.167Z,9.44
2023-03-21T14:28:14.758Z,9.51
2023-03-21T14:33:15.217Z,9.46
2023-03-21T14:38:14.424Z,9.34
2023-03-21T14:43:24.035Z,9.28
2023-03-21T14:48:33.540Z,9.44
2023-03-21T14:53:42.678Z,9.08
2023-03-21T14:58:51.918Z,8.80
2023-03-21T15:04:00.716Z,9.09
2023-03-21T15:09:11.242Z,10.63
2023-03-21T15:14:18.358Z,11.33
2023-03-21T15:19:27.907Z,10.22
2023-03-21T15:24:30.253Z,9.83
2023-03-21T15:29:40.628Z,9.47
2023-03-21T15:34:39.942Z,9.16
2023-03-21T15:39:48.048Z,9.12
2023-03-21T15:44:58.432Z,8.44
2023-03-21T15:49:57.777Z,6.91
2023-03-21T15:55:08.109Z,5.66
2023-03-21T16:00:07.726Z,5.55
2023-03-21T16:05:17.906Z,5.25
2023-03-21T16:10:17.256Z,5.18
2023-03-21T16:15:25.984Z,4.04
2023-03-21T16:20:35.136Z,2.99
2023-03-21T16:25:45.402Z,2.69
2023-03-21T16:30:44.887Z,2.89
2023-03-21T16:35:54.006Z,2.62
2023-03-21T16:41:04.243Z,2.51
2023-03-21T16:46:03.823Z,2.33
2023-03-21T16:51:13.569Z,2.52
2023-03-21T16:56:22.542Z,2.41
2023-03-21T17:01:31.696Z,2.52
2023-03-21T17:06:40.436Z,2.70
2023-03-21T17:11:49.773Z,2.67
2023-03-21T17:16:59.392Z,2.69
2023-03-21T17:22:09.142Z,2.51
2023-03-21T17:27:20.485Z,2.43
2023-03-21T17:32:18.609Z,2.40
2023-03-21T17:37:28.219Z,2.43
2023-03-21T17:42:37.547Z,2.54
2023-03-21T17:47:46.826Z,2.29
2023-03-21T17:52:55.756Z,2.61
2023-03-21T17:58:05.602Z,2.58
2023-03-21T18:03:14.387Z,2.66
2023-03-21T18:08:24.889Z,2.81
2023-03-21T18:13:24.243Z,2.65
2023-03-21T18:18:34.241Z,2.92
2023-03-21T18:23:43.818Z,3.07
2023-03-21T18:29:53.334Z,2.73
2023-03-21T18:33:53.265Z,2.53
2023-03-21T18:39:02.760Z,2.53
2023-03-21T18:44:17.773Z,2.23
2023-03-21T18:50:01.935Z,2.40
2023-03-21T18:54:29.766Z,2.36
2023-03-21T18:59:39.518Z,2.47
2023-03-21T19:04:47.562Z,2.74
2023-03-21T19:10:15.823Z,2.71
2023-03-21T19:15:05.716Z,2.96
2023-03-21T19:20:14.367Z,2.53
2023-03-21T19:25:22.593Z,2.67
2023-03-21T19:30:30.953Z,2.57
2023-03-21T19:35:40.749Z,2.52
2023-03-21T19:40:47.659Z,2.85
2023-03-21T19:45:56.156Z,2.87
2023-03-21T19:51:26.847Z,2.72
2023-03-21T19:56:21.525Z,2.61
2023-03-21T20:01:21.931Z,2.89
2023-03-21T20:06:30.244Z,2.76
2023-03-21T20:11:41.228Z,2.72
2023-03-21T20:16:43.330Z,2.62
2023-03-21T20:21:55.408Z,2.48
2023-03-21T20:26:49.046Z,2.68
2023-03-21T20:31:58.974Z,2.67
2023-03-21T20:37:08.559Z,2.72
2023-03-21T20:42:17.867Z,3.04
2023-03-21T20:47:27.333Z,2.63
2023-03-21T20:53:00.867Z,2.64
2023-03-21T20:57:38.862Z,3.01
2023-03-21T21:02:44.743Z,3.89
2023-03-21T21:07:53.231Z,4.18
2023-03-21T21:13:02.499Z,3.84
2023-03-21T21:18:10.898Z,3.53
2023-03-21T21:23:19.603Z,3.81
2023-03-21T21:28:27.844Z,3.83
2023-03-21T21:33:36.968Z,3.67
2023-03-21T21:38:46.511Z,3.91
2023-03-21T21:43:56.354Z,3.62
2023-03-21T21:49:04.711Z,3.81
2023-03-21T21:54:13.633Z,3.69
2023-03-21T21:59:22.527Z,3.84
2023-03-21T22:04:32.513Z,4.02
2023-03-21T22:09:42.257Z,3.90
2023-03-21T22:14:50.911Z,3.69
2023-03-21T22:20:06.216Z,3.64
2023-03-21T22:25:08.623Z,3.32
2023-03-21T22:30:17.360Z,3.63
2023-03-21T22:35:25.916Z,3.20
2023-03-21T22:40:34.170Z,3.30
2023-03-21T22:45:43.807Z,3.25
2023-03-21T22:50:53.124Z,3.51
2023-03-21T22:56:04.640Z,3.23
2023-03-21T23:00:56.645Z,3.37
2023-03-21T23:06:06.501Z,3.09
2023-03-21T23:11:14.789Z,3.65
2023-03-21T23:16:24.578Z,3.58
2023-03-21T23:21:34.632Z,3.46
2023-03-21T23:26:36.087Z,3.40
2023-03-21T23:31:27.801Z,3.10
2023-03-21T23:36:39.206Z,3.26
2023-03-21T23:41:37.443Z,2.92
2023-03-21T23:46:47.065Z,2.59
2023-03-21T23:51:56.192Z,3.59
2023-03-21T23:57:06.792Z,3.27
